Ashburnham, Massachusetts
Current Conditions -  °F | °C
As of 3:52 AM on Wednesday 22 Oct 2014 (Local Time) from KFIT Reporting Station
Overcast Overcast  
Wind Chill: 50°   Ceiling: 700
Heat Index: 50°   Visibility: 10mi
Dew Point: 46°   Wind: 9mph
Humidity: 86%   Direction: 360°N
Pressure: 30"   Gusts: 17mph
Location:  42.64°N, 71.91°W
Report Text: KFIT 220752Z AUTO 36008G15KT 10SM OVC007 10/08 A3000 RMK AO2 SLP160 T01000078
Loading
Personal Weather Stations






























Interactive Weather Map
Tropical Storm Tracking
New forecast layout! Learn more

10-Day Weather Forecast

Advertisements
Track Severe Weather on mobile